createdAt,value
2024-03-12T00:03:12.592Z,5.50
2024-03-12T00:08:17.881Z,5.50
2024-03-12T00:13:22.214Z,5.50
2024-03-12T00:18:28.337Z,5.50
2024-03-12T00:23:31.494Z,5.60
2024-03-12T00:28:34.691Z,5.50
2024-03-12T00:33:38.015Z,5.50
2024-03-12T00:38:41.772Z,5.50
2024-03-12T00:43:44.977Z,5.50
2024-03-12T00:48:48.609Z,5.50
2024-03-12T00:53:51.617Z,5.50
2024-03-12T00:58:54.768Z,5.50
2024-03-12T01:03:57.775Z,5.50
2024-03-12T01:09:04.537Z,5.50
2024-03-12T01:14:07.542Z,5.50
2024-03-12T01:19:11.300Z,5.50
2024-03-12T01:24:14.731Z,5.60
2024-03-12T01:29:18.292Z,5.70
2024-03-12T01:34:26.957Z,5.70
2024-03-12T01:39:29.957Z,5.70
2024-03-12T01:44:36.571Z,5.70
2024-03-12T01:49:39.983Z,5.60
2024-03-12T01:54:45.603Z,5.60
2024-03-12T01:59:48.768Z,5.60
2024-03-12T02:04:51.878Z,5.70
2024-03-12T02:09:55.061Z,5.60
2024-03-12T02:15:04.363Z,5.60
2024-03-12T02:20:10.611Z,5.60
2024-03-12T02:25:14.028Z,5.60
2024-03-12T02:30:18.008Z,5.60
2024-03-12T02:35:21.572Z,5.60
2024-03-12T02:40:25.127Z,5.50
2024-03-12T02:45:28.296Z,5.50
2024-03-12T02:50:31.196Z,5.50
2024-03-12T02:55:36.014Z,5.50
2024-03-12T03:00:41.513Z,5.50
2024-03-12T03:05:45.181Z,5.50
2024-03-12T03:10:48.119Z,5.50
2024-03-12T03:15:51.379Z,5.60
2024-03-12T03:20:57.339Z,5.50
2024-03-12T03:26:00.591Z,5.50
2024-03-12T03:31:12.186Z,5.50
2024-03-12T03:36:15.855Z,5.50
2024-03-12T03:41:19.223Z,5.50
2024-03-12T03:46:22.349Z,5.50
2024-03-12T03:51:25.631Z,5.50
2024-03-12T03:56:29.480Z,5.50
2024-03-12T04:01:32.992Z,5.50
2024-03-12T04:06:35.917Z,5.60
2024-03-12T04:11:39.961Z,5.60
2024-03-12T04:16:43.361Z,5.60
2024-03-12T04:21:46.875Z,5.60
2024-03-12T04:26:50.150Z,5.60
2024-03-12T04:31:56.383Z,5.70
2024-03-12T04:37:00.241Z,5.70
2024-03-12T04:42:06.728Z,5.70
2024-03-12T04:47:11.054Z,5.80
2024-03-12T04:52:14.422Z,5.80
2024-03-12T04:57:18.494Z,5.80
2024-03-12T05:02:21.782Z,5.80
2024-03-12T05:07:25.196Z,5.90
2024-03-12T05:12:28.807Z,5.90
2024-03-12T05:17:32.113Z,5.90
2024-03-12T05:22:35.106Z,5.80
2024-03-12T05:27:40.083Z,5.80
2024-03-12T05:32:50.372Z,5.80
2024-03-12T05:38:13.176Z,5.70
2024-03-12T05:43:35.138Z,5.70
2024-03-12T05:48:39.596Z,5.80
2024-03-12T05:53:43.442Z,5.80
2024-03-12T05:58:49.898Z,5.70
2024-03-12T06:03:53.508Z,5.80
2024-03-12T06:08:57.534Z,5.80
2024-03-12T06:14:03.834Z,5.80
2024-03-12T06:19:08.168Z,5.80
2024-03-12T06:24:11.388Z,5.90
2024-03-12T06:29:15.623Z,5.90
2024-03-12T06:34:19.076Z,5.90
2024-03-12T06:39:22.481Z,6.00
2024-03-12T06:44:27.252Z,6.00
2024-03-12T06:49:30.481Z,6.00
2024-03-12T06:54:36.806Z,6.10
2024-03-12T06:59:45.126Z,6.20
2024-03-12T07:04:52.490Z,6.20
2024-03-12T07:10:01.377Z,6.10
2024-03-12T07:15:07.031Z,6.20
2024-03-12T07:20:13.782Z,6.40
2024-03-12T07:25:20.503Z,6.30
2024-03-12T07:30:26.255Z,6.30
2024-03-12T07:35:29.899Z,6.50
2024-03-12T07:40:35.819Z,6.40
2024-03-12T07:45:45.429Z,6.60
2024-03-12T07:50:49.360Z,6.50
2024-03-12T07:55:57.907Z,6.60
2024-03-12T08:01:02.772Z,6.60
2024-03-12T08:06:06.114Z,6.60
2024-03-12T08:11:09.685Z,6.60
2024-03-12T08:16:13.048Z,6.60
2024-03-12T08:21:17.746Z,6.70
2024-03-12T08:26:22.170Z,6.70
2024-03-12T08:31:32.828Z,6.90
2024-03-12T08:36:39.465Z,7.00
2024-03-12T08:41:43.733Z,7.00
2024-03-12T08:46:47.290Z,7.00
2024-03-12T08:51:51.832Z,7.10
2024-03-12T08:56:55.364Z,7.20
2024-03-12T09:02:01.267Z,7.20
2024-03-12T09:07:05.000Z,7.30
2024-03-12T09:12:09.837Z,7.50
2024-03-12T09:17:13.942Z,7.50
2024-03-12T09:22:18.405Z,7.40
2024-03-12T09:27:21.771Z,7.50
2024-03-12T09:32:26.024Z,7.50
2024-03-12T09:37:29.489Z,7.60
2024-03-12T09:42:37.622Z,7.80
2024-03-12T09:47:46.104Z,7.70
2024-03-12T09:52:51.746Z,7.70
2024-03-12T09:57:56.312Z,7.60
2024-03-12T10:03:01.326Z,7.50
2024-03-12T10:08:09.223Z,7.60
2024-03-12T10:13:17.088Z,7.70
2024-03-12T10:18:22.444Z,7.90
2024-03-12T10:23:30.583Z,7.90
2024-03-12T10:28:34.004Z,7.80
2024-03-12T10:33:43.732Z,7.80
2024-03-12T10:38:47.015Z,7.80
2024-03-12T10:43:56.725Z,7.80
2024-03-12T10:49:00.953Z,8.00
2024-03-12T10:54:09.169Z,8.10
2024-03-12T10:59:13.760Z,8.20
2024-03-12T11:04:17.665Z,8.20
2024-03-12T11:09:23.559Z,8.20
2024-03-12T11:14:29.802Z,8.30
2024-03-12T11:19:35.452Z,8.50
2024-03-12T11:24:50.289Z,8.50
2024-03-12T11:30:06.754Z,8.50
2024-03-12T11:35:19.730Z,8.20
2024-03-12T11:40:30.377Z,8.10
2024-03-12T11:45:49.226Z,8.00
2024-03-12T11:50:56.190Z,8.00
2024-03-12T11:56:09.947Z,8.10
2024-03-12T12:01:23.593Z,8.00
2024-03-12T12:06:28.383Z,8.10
2024-03-12T12:11:33.777Z,8.30
2024-03-12T12:16:37.262Z,8.40
2024-03-12T12:21:40.825Z,8.50
2024-03-12T12:26:48.421Z,8.50
2024-03-12T12:31:54.903Z,8.40
2024-03-12T12:37:00.041Z,8.30
2024-03-12T12:42:08.985Z,8.20
2024-03-12T12:47:12.059Z,8.20
2024-03-12T12:52:16.688Z,8.30
2024-03-12T12:57:20.172Z,8.30
2024-03-12T13:02:24.967Z,8.30
2024-03-12T13:07:34.857Z,8.20
2024-03-12T13:12:40.166Z,8.10
2024-03-12T13:17:44.422Z,8.10
2024-03-12T13:22:49.875Z,8.10
2024-03-12T13:27:53.311Z,8.10
2024-03-12T13:32:56.447Z,8.10
2024-03-12T13:38:00.640Z,8.20
2024-03-12T13:43:05.120Z,8.20
2024-03-12T13:48:08.967Z,8.30
2024-03-12T13:53:12.378Z,8.40
2024-03-12T13:58:15.958Z,8.40
2024-03-12T14:03:22.572Z,8.30
2024-03-12T14:08:27.398Z,8.30
2024-03-12T14:13:30.726Z,8.20
2024-03-12T14:18:34.409Z,8.20
2024-03-12T14:23:38.981Z,8.30
2024-03-12T14:28:42.071Z,8.30
2024-03-12T14:33:45.128Z,8.20
2024-03-12T14:38:50.045Z,8.30
2024-03-12T14:43:55.632Z,8.30
2024-03-12T14:48:58.544Z,8.40
2024-03-12T14:54:01.811Z,8.50
2024-03-12T14:59:07.168Z,8.50
2024-03-12T15:04:10.765Z,8.40
2024-03-12T15:09:15.272Z,8.40
2024-03-12T15:14:18.813Z,8.30
2024-03-12T15:19:22.474Z,8.30
2024-03-12T15:24:26.164Z,8.20
2024-03-12T15:29:30.994Z,8.20
2024-03-12T15:34:34.054Z,8.20
2024-03-12T15:39:37.643Z,8.10
2024-03-12T15:44:40.967Z,8.10
2024-03-12T15:49:44.312Z,8.20
2024-03-12T15:54:49.682Z,8.20
2024-03-12T15:59:52.914Z,8.20
2024-03-12T16:04:56.254Z,8.20
2024-03-12T16:09:59.987Z,8.20
2024-03-12T16:15:03.705Z,8.20
2024-03-12T16:20:20.649Z,8.20
2024-03-12T16:25:24.196Z,8.30
2024-03-12T16:30:27.821Z,8.20
2024-03-12T16:35:31.050Z,8.20
2024-03-12T16:40:34.472Z,8.20
2024-03-12T16:45:38.268Z,8.20
2024-03-12T16:50:41.682Z,8.20
2024-03-12T16:55:45.461Z,8.00
2024-03-12T17:00:48.635Z,7.60
2024-03-12T17:05:53.882Z,7.50
2024-03-12T17:10:57.489Z,7.30
2024-03-12T17:16:01.553Z,7.20
2024-03-12T17:21:04.887Z,7.10
2024-03-12T17:26:11.319Z,7.00
2024-03-12T17:31:15.996Z,6.90
2024-03-12T17:36:24.740Z,6.90
2024-03-12T17:41:28.341Z,6.90
2024-03-12T17:46:34.936Z,7.00
2024-03-12T17:51:38.282Z,7.00
2024-03-12T17:56:48.941Z,7.00
2024-03-12T18:01:53.708Z,7.10
2024-03-12T18:07:01.556Z,7.20
2024-03-12T18:12:05.421Z,7.30
2024-03-12T18:17:08.943Z,7.40
2024-03-12T18:22:14.709Z,7.40
2024-03-12T18:27:17.926Z,7.40
2024-03-12T18:32:22.016Z,7.40
2024-03-12T18:37:26.271Z,7.40
2024-03-12T18:42:32.001Z,7.40
2024-03-12T18:47:35.747Z,7.40
2024-03-12T18:52:40.255Z,7.20
2024-03-12T18:57:45.622Z,7.20
2024-03-12T19:02:50.132Z,7.20
2024-03-12T19:07:53.973Z,7.20
2024-03-12T19:12:59.437Z,7.10
2024-03-12T19:18:08.144Z,7.20
2024-03-12T19:23:11.737Z,7.10
2024-03-12T19:28:21.567Z,7.20
2024-03-12T19:33:28.209Z,7.10
2024-03-12T19:38:32.896Z,7.10
2024-03-12T19:43:37.352Z,7.00
2024-03-12T19:48:47.705Z,6.90
2024-03-12T19:53:58.040Z,6.70
2024-03-12T19:59:02.018Z,6.70
2024-03-12T20:04:05.685Z,6.70
2024-03-12T20:09:23.561Z,6.80
2024-03-12T20:14:29.119Z,6.80
2024-03-12T20:19:33.494Z,6.90
2024-03-12T20:24:36.828Z,6.90
2024-03-12T20:29:39.993Z,7.00
2024-03-12T20:34:43.757Z,7.00
2024-03-12T20:39:48.059Z,7.00
2024-03-12T20:44:51.324Z,7.00
2024-03-12T20:49:54.596Z,7.00
2024-03-12T20:54:59.212Z,7.00
2024-03-12T21:00:02.776Z,7.00
2024-03-12T21:05:06.345Z,7.00
2024-03-12T21:10:12.805Z,7.00
2024-03-12T21:15:17.660Z,6.90
2024-03-12T21:20:29.952Z,6.90
2024-03-12T21:25:35.874Z,6.90
2024-03-12T21:30:42.269Z,6.90
2024-03-12T21:35:46.065Z,6.90
2024-03-12T21:40:49.306Z,6.90
2024-03-12T21:45:57.248Z,7.00
2024-03-12T21:51:00.466Z,7.00
2024-03-12T21:56:03.797Z,7.00
2024-03-12T22:01:07.718Z,7.00
2024-03-12T22:06:15.605Z,6.80
2024-03-12T22:11:20.749Z,6.70
2024-03-12T22:16:23.835Z,6.70
2024-03-12T22:21:27.196Z,6.70
2024-03-12T22:26:30.431Z,6.70
2024-03-12T22:31:33.653Z,6.60
2024-03-12T22:36:37.133Z,6.60
2024-03-12T22:41:45.193Z,6.60
2024-03-12T22:46:48.573Z,6.70
2024-03-12T22:51:57.884Z,6.60
2024-03-12T22:57:01.899Z,6.50
2024-03-12T23:02:06.569Z,6.50
2024-03-12T23:07:11.129Z,6.60
2024-03-12T23:12:14.611Z,6.60
2024-03-12T23:17:20.705Z,6.60
2024-03-12T23:22:24.665Z,6.60
2024-03-12T23:27:27.729Z,6.60
2024-03-12T23:32:32.404Z,6.60
2024-03-12T23:37:37.010Z,6.60
2024-03-12T23:42:40.468Z,6.60
2024-03-12T23:47:44.743Z,6.60
2024-03-12T23:52:50.255Z,6.60
2024-03-12T23:57:54.776Z,6.60
